sensor_id;sensor_type;location;lat;lon;timestamp;temperature;humidity
4215;DHT22;2121;48.062;7.850;2023-04-24T00:00:11;11.70;99.90
4215;DHT22;2121;48.062;7.850;2023-04-24T00:02:40;11.70;99.90
4215;DHT22;2121;48.062;7.850;2023-04-24T00:05:13;11.60;99.90
4215;DHT22;2121;48.062;7.850;2023-04-24T00:07:40;11.70;99.90
4215;DHT22;2121;48.062;7.850;2023-04-24T00:10:07;11.70;99.90
4215;DHT22;2121;48.062;7.850;2023-04-24T00:12:34;11.70;99.90
4215;DHT22;2121;48.062;7.850;2023-04-24T00:15:00;11.80;99.90
4215;DHT22;2121;48.062;7.850;2023-04-24T00:17:26;11.70;99.90
4215;DHT22;2121;48.062;7.850;2023-04-24T00:19:52;11.70;99.90
4215;DHT22;2121;48.062;7.850;2023-04-24T00:22:24;11.60;99.90
4215;DHT22;2121;48.062;7.850;2023-04-24T00:24:51;11.60;99.90
4215;DHT22;2121;48.062;7.850;2023-04-24T00:27:16;11.60;99.90
4215;DHT22;2121;48.062;7.850;2023-04-24T00:29:42;11.60;99.90
4215;DHT22;2121;48.062;7.850;2023-04-24T00:32:08;11.60;99.90
4215;DHT22;2121;48.062;7.850;2023-04-24T00:34:34;11.60;99.90
4215;DHT22;2121;48.062;7.850;2023-04-24T00:36:59;11.70;99.90
4215;DHT22;2121;48.062;7.850;2023-04-24T00:39:25;11.70;99.90
4215;DHT22;2121;48.062;7.850;2023-04-24T00:41:51;11.70;99.90
4215;DHT22;2121;48.062;7.850;2023-04-24T00:44:18;11.70;99.90
4215;DHT22;2121;48.062;7.850;2023-04-24T00:46:43;11.70;99.90
4215;DHT22;2121;48.062;7.850;2023-04-24T00:49:09;11.70;99.90
4215;DHT22;2121;48.062;7.850;2023-04-24T00:51:35;11.70;99.90
4215;DHT22;2121;48.062;7.850;2023-04-24T00:54:02;11.70;99.90
4215;DHT22;2121;48.062;7.850;2023-04-24T00:56:28;11.70;99.90
4215;DHT22;2121;48.062;7.850;2023-04-24T00:58:54;11.70;99.90
4215;DHT22;2121;48.062;7.850;2023-04-24T01:01:21;11.70;99.90
4215;DHT22;2121;48.062;7.850;2023-04-24T01:03:49;11.70;99.90
4215;DHT22;2121;48.062;7.850;2023-04-24T01:06:16;11.60;99.90
4215;DHT22;2121;48.062;7.850;2023-04-24T01:08:45;11.60;99.90
4215;DHT22;2121;48.062;7.850;2023-04-24T01:11:12;11.50;99.90
4215;DHT22;2121;48.062;7.850;2023-04-24T01:13:37;11.50;99.90
4215;DHT22;2121;48.062;7.850;2023-04-24T01:16:03;11.40;99.90
4215;DHT22;2121;48.062;7.850;2023-04-24T01:18:29;11.30;99.90
4215;DHT22;2121;48.062;7.850;2023-04-24T01:20:59;11.40;99.90
4215;DHT22;2121;48.062;7.850;2023-04-24T01:23:27;11.30;99.90
4215;DHT22;2121;48.062;7.850;2023-04-24T01:25:53;11.30;99.90
4215;DHT22;2121;48.062;7.850;2023-04-24T01:28:19;11.40;99.90
4215;DHT22;2121;48.062;7.850;2023-04-24T01:30:45;11.40;99.90
4215;DHT22;2121;48.062;7.850;2023-04-24T01:33:11;11.50;99.90
4215;DHT22;2121;48.062;7.850;2023-04-24T01:35:37;11.50;99.90
4215;DHT22;2121;48.062;7.850;2023-04-24T01:38:03;11.50;99.90
4215;DHT22;2121;48.062;7.850;2023-04-24T01:40:31;11.50;99.90
4215;DHT22;2121;48.062;7.850;2023-04-24T01:42:58;11.50;99.90
4215;DHT22;2121;48.062;7.850;2023-04-24T01:45:24;11.40;99.90
4215;DHT22;2121;48.062;7.850;2023-04-24T01:47:50;11.30;99.90
4215;DHT22;2121;48.062;7.850;2023-04-24T01:50:16;11.30;99.90
4215;DHT22;2121;48.062;7.850;2023-04-24T01:52:43;11.20;99.90
4215;DHT22;2121;48.062;7.850;2023-04-24T01:55:09;11.30;99.90
4215;DHT22;2121;48.062;7.850;2023-04-24T01:57:35;11.30;99.90
4215;DHT22;2121;48.062;7.850;2023-04-24T02:00:03;11.30;99.90
4215;DHT22;2121;48.062;7.850;2023-04-24T02:02:32;11.30;99.90
4215;DHT22;2121;48.062;7.850;2023-04-24T02:04:58;11.30;99.90
4215;DHT22;2121;48.062;7.850;2023-04-24T02:07:24;11.40;99.90
4215;DHT22;2121;48.062;7.850;2023-04-24T02:09:49;11.40;99.90
4215;DHT22;2121;48.062;7.850;2023-04-24T02:12:16;11.30;99.90
4215;DHT22;2121;48.062;7.850;2023-04-24T02:14:43;11.40;99.90
4215;DHT22;2121;48.062;7.850;2023-04-24T02:17:09;11.40;99.90
4215;DHT22;2121;48.062;7.850;2023-04-24T02:19:37;11.20;99.90
4215;DHT22;2121;48.062;7.850;2023-04-24T02:22:03;11.10;99.90
4215;DHT22;2121;48.062;7.850;2023-04-24T02:24:28;10.90;99.90
4215;DHT22;2121;48.062;7.850;2023-04-24T02:26:54;10.90;99.90
4215;DHT22;2121;48.062;7.850;2023-04-24T02:29:20;10.90;99.90
4215;DHT22;2121;48.062;7.850;2023-04-24T02:31:45;10.90;99.90
4215;DHT22;2121;48.062;7.850;2023-04-24T02:34:11;11.00;99.90
4215;DHT22;2121;48.062;7.850;2023-04-24T02:36:37;11.00;99.90
4215;DHT22;2121;48.062;7.850;2023-04-24T02:39:02;11.00;99.90
4215;DHT22;2121;48.062;7.850;2023-04-24T02:41:29;11.10;99.90
4215;DHT22;2121;48.062;7.850;2023-04-24T02:43:57;11.10;99.90
4215;DHT22;2121;48.062;7.850;2023-04-24T02:46:23;11.00;99.90
4215;DHT22;2121;48.062;7.850;2023-04-24T02:48:50;11.00;99.90
4215;DHT22;2121;48.062;7.850;2023-04-24T02:51:16;11.00;99.90
4215;DHT22;2121;48.062;7.850;2023-04-24T02:53:41;11.10;99.90
4215;DHT22;2121;48.062;7.850;2023-04-24T02:56:07;11.10;99.90
4215;DHT22;2121;48.062;7.850;2023-04-24T02:58:33;11.10;99.90
4215;DHT22;2121;48.062;7.850;2023-04-24T03:00:59;11.20;99.90
4215;DHT22;2121;48.062;7.850;2023-04-24T03:03:26;11.20;99.90
4215;DHT22;2121;48.062;7.850;2023-04-24T03:05:52;11.20;99.90
4215;DHT22;2121;48.062;7.850;2023-04-24T03:08:18;11.20;99.90
4215;DHT22;2121;48.062;7.850;2023-04-24T03:10:43;11.20;99.90
4215;DHT22;2121;48.062;7.850;2023-04-24T03:13:09;11.20;99.90
4215;DHT22;2121;48.062;7.850;2023-04-24T03:15:35;11.30;99.90
4215;DHT22;2121;48.062;7.850;2023-04-24T03:18:00;11.30;99.90
4215;DHT22;2121;48.062;7.850;2023-04-24T03:20:28;11.30;99.90
4215;DHT22;2121;48.062;7.850;2023-04-24T03:22:53;11.30;99.90
4215;DHT22;2121;48.062;7.850;2023-04-24T03:25:19;11.20;99.90
4215;DHT22;2121;48.062;7.850;2023-04-24T03:27:45;11.10;99.90
4215;DHT22;2121;48.062;7.850;2023-04-24T03:30:11;11.00;99.90
4215;DHT22;2121;48.062;7.850;2023-04-24T03:32:37;10.80;99.90
4215;DHT22;2121;48.062;7.850;2023-04-24T03:35:05;10.80;99.90
4215;DHT22;2121;48.062;7.850;2023-04-24T03:37:32;10.70;99.90
4215;DHT22;2121;48.062;7.850;2023-04-24T03:39:58;10.70;99.90
4215;DHT22;2121;48.062;7.850;2023-04-24T03:42:24;10.60;99.90
4215;DHT22;2121;48.062;7.850;2023-04-24T03:44:50;10.50;99.90
4215;DHT22;2121;48.062;7.850;2023-04-24T03:47:15;10.60;99.90
4215;DHT22;2121;48.062;7.850;2023-04-24T03:49:41;10.60;99.90
4215;DHT22;2121;48.062;7.850;2023-04-24T03:52:07;10.50;99.90
4215;DHT22;2121;48.062;7.850;2023-04-24T03:54:32;10.50;99.90
4215;DHT22;2121;48.062;7.850;2023-04-24T03:56:58;10.50;99.90
4215;DHT22;2121;48.062;7.850;2023-04-24T03:59:24;10.50;99.90
4215;DHT22;2121;48.062;7.850;2023-04-24T04:01:49;10.50;99.90
4215;DHT22;2121;48.062;7.850;2023-04-24T04:04:15;10.40;99.90
4215;DHT22;2121;48.062;7.850;2023-04-24T04:06:41;10.30;99.90
4215;DHT22;2121;48.062;7.850;2023-04-24T04:09:07;10.20;99.90
4215;DHT22;2121;48.062;7.850;2023-04-24T04:11:34;10.10;99.90
4215;DHT22;2121;48.062;7.850;2023-04-24T04:14:00;10.00;99.90
4215;DHT22;2121;48.062;7.850;2023-04-24T04:16:26;10.00;99.90
4215;DHT22;2121;48.062;7.850;2023-04-24T04:18:52;10.00;99.90
4215;DHT22;2121;48.062;7.850;2023-04-24T04:21:18;9.90;99.90
4215;DHT22;2121;48.062;7.850;2023-04-24T04:23:43;10.00;99.90
4215;DHT22;2121;48.062;7.850;2023-04-24T04:26:09;10.00;99.90
4215;DHT22;2121;48.062;7.850;2023-04-24T04:28:36;9.90;99.90
4215;DHT22;2121;48.062;7.850;2023-04-24T04:31:03;10.00;99.90
4215;DHT22;2121;48.062;7.850;2023-04-24T04:33:28;9.90;99.90
4215;DHT22;2121;48.062;7.850;2023-04-24T04:35:54;10.00;99.90
4215;DHT22;2121;48.062;7.850;2023-04-24T04:38:22;9.90;99.90
4215;DHT22;2121;48.062;7.850;2023-04-24T04:40:48;9.90;99.90
4215;DHT22;2121;48.062;7.850;2023-04-24T04:43:14;10.00;99.90
4215;DHT22;2121;48.062;7.850;2023-04-24T04:45:41;10.00;99.90
4215;DHT22;2121;48.062;7.850;2023-04-24T04:48:09;10.00;99.90
4215;DHT22;2121;48.062;7.850;2023-04-24T04:50:37;10.00;99.90
4215;DHT22;2121;48.062;7.850;2023-04-24T04:53:03;10.00;99.90
4215;DHT22;2121;48.062;7.850;2023-04-24T04:55:29;10.00;99.90
4215;DHT22;2121;48.062;7.850;2023-04-24T04:57:55;10.10;99.90
4215;DHT22;2121;48.062;7.850;2023-04-24T05:00:21;10.00;99.90
4215;DHT22;2121;48.062;7.850;2023-04-24T05:02:49;10.10;99.90
4215;DHT22;2121;48.062;7.850;2023-04-24T05:05:15;10.20;99.90
4215;DHT22;2121;48.062;7.850;2023-04-24T05:07:42;10.20;99.90
4215;DHT22;2121;48.062;7.850;2023-04-24T05:10:08;10.20;99.90
4215;DHT22;2121;48.062;7.850;2023-04-24T05:12:34;10.30;99.90
4215;DHT22;2121;48.062;7.850;2023-04-24T05:15:00;10.40;99.90
4215;DHT22;2121;48.062;7.850;2023-04-24T05:17:26;10.40;99.90
4215;DHT22;2121;48.062;7.850;2023-04-24T05:19:51;10.50;99.90
4215;DHT22;2121;48.062;7.850;2023-04-24T05:22:17;10.50;99.90
4215;DHT22;2121;48.062;7.850;2023-04-24T05:24:46;10.40;99.90
4215;DHT22;2121;48.062;7.850;2023-04-24T05:27:12;10.00;99.90
4215;DHT22;2121;48.062;7.850;2023-04-24T05:29:38;9.80;99.90
4215;DHT22;2121;48.062;7.850;2023-04-24T05:32:04;9.70;99.90
4215;DHT22;2121;48.062;7.850;2023-04-24T05:34:30;9.60;99.90
4215;DHT22;2121;48.062;7.850;2023-04-24T05:36:55;9.60;99.90
4215;DHT22;2121;48.062;7.850;2023-04-24T05:39:21;9.50;99.90
4215;DHT22;2121;48.062;7.850;2023-04-24T05:41:47;9.50;99.90
4215;DHT22;2121;48.062;7.850;2023-04-24T05:44:13;9.40;99.90
4215;DHT22;2121;48.062;7.850;2023-04-24T05:46:38;9.40;99.90
4215;DHT22;2121;48.062;7.850;2023-04-24T05:49:04;9.40;99.90
4215;DHT22;2121;48.062;7.850;2023-04-24T05:51:30;9.40;99.90
4215;DHT22;2121;48.062;7.850;2023-04-24T05:53:57;9.50;99.90
4215;DHT22;2121;48.062;7.850;2023-04-24T05:56:23;9.50;99.90
4215;DHT22;2121;48.062;7.850;2023-04-24T05:58:48;9.50;99.90
4215;DHT22;2121;48.062;7.850;2023-04-24T06:01:14;9.50;99.90
4215;DHT22;2121;48.062;7.850;2023-04-24T06:03:41;9.50;99.90
4215;DHT22;2121;48.062;7.850;2023-04-24T06:06:07;9.50;99.90
4215;DHT22;2121;48.062;7.850;2023-04-24T06:08:34;9.50;99.90
4215;DHT22;2121;48.062;7.850;2023-04-24T06:11:00;9.50;99.90
4215;DHT22;2121;48.062;7.850;2023-04-24T06:13:26;9.50;99.90
4215;DHT22;2121;48.062;7.850;2023-04-24T06:15:52;9.50;99.90
4215;DHT22;2121;48.062;7.850;2023-04-24T06:18:18;9.50;99.90
4215;DHT22;2121;48.062;7.850;2023-04-24T06:20:45;9.50;99.90
4215;DHT22;2121;48.062;7.850;2023-04-24T06:23:11;9.60;99.90
4215;DHT22;2121;48.062;7.850;2023-04-24T06:25:37;9.80;99.90
4215;DHT22;2121;48.062;7.850;2023-04-24T06:28:03;10.10;99.90
4215;DHT22;2121;48.062;7.850;2023-04-24T06:30:29;10.30;99.90
4215;DHT22;2121;48.062;7.850;2023-04-24T06:32:55;10.30;99.90
4215;DHT22;2121;48.062;7.850;2023-04-24T06:35:20;10.40;99.90
4215;DHT22;2121;48.062;7.850;2023-04-24T06:37:46;10.40;99.90
4215;DHT22;2121;48.062;7.850;2023-04-24T06:40:12;10.50;99.90
4215;DHT22;2121;48.062;7.850;2023-04-24T06:42:38;10.50;99.90
4215;DHT22;2121;48.062;7.850;2023-04-24T06:45:04;10.60;99.90
4215;DHT22;2121;48.062;7.850;2023-04-24T06:47:30;10.70;99.90
4215;DHT22;2121;48.062;7.850;2023-04-24T06:49:56;10.60;99.90
4215;DHT22;2121;48.062;7.850;2023-04-24T06:52:22;10.60;99.90
4215;DHT22;2121;48.062;7.850;2023-04-24T06:54:48;10.60;99.90
4215;DHT22;2121;48.062;7.850;2023-04-24T06:57:14;10.50;99.90
4215;DHT22;2121;48.062;7.850;2023-04-24T06:59:41;10.50;99.90
4215;DHT22;2121;48.062;7.850;2023-04-24T07:02:07;10.50;99.90
4215;DHT22;2121;48.062;7.850;2023-04-24T07:04:33;10.50;99.90
4215;DHT22;2121;48.062;7.850;2023-04-24T07:06:59;10.70;99.90
4215;DHT22;2121;48.062;7.850;2023-04-24T07:09:26;10.70;99.90
4215;DHT22;2121;48.062;7.850;2023-04-24T07:11:53;10.70;99.90
4215;DHT22;2121;48.062;7.850;2023-04-24T07:14:19;10.70;99.90
4215;DHT22;2121;48.062;7.850;2023-04-24T07:16:46;10.60;99.90
4215;DHT22;2121;48.062;7.850;2023-04-24T07:19:12;10.50;99.90
4215;DHT22;2121;48.062;7.850;2023-04-24T07:21:39;10.50;99.90
4215;DHT22;2121;48.062;7.850;2023-04-24T07:24:05;10.50;99.90
4215;DHT22;2121;48.062;7.850;2023-04-24T07:26:34;10.80;99.90
4215;DHT22;2121;48.062;7.850;2023-04-24T07:29:00;11.00;99.90
4215;DHT22;2121;48.062;7.850;2023-04-24T07:31:26;11.30;99.90
4215;DHT22;2121;48.062;7.850;2023-04-24T07:33:52;11.40;99.90
4215;DHT22;2121;48.062;7.850;2023-04-24T07:36:17;11.60;99.90
4215;DHT22;2121;48.062;7.850;2023-04-24T07:38:47;11.70;99.90
4215;DHT22;2121;48.062;7.850;2023-04-24T07:41:13;11.80;99.90
4215;DHT22;2121;48.062;7.850;2023-04-24T07:43:39;12.00;99.90
4215;DHT22;2121;48.062;7.850;2023-04-24T07:46:06;12.30;99.90
4215;DHT22;2121;48.062;7.850;2023-04-24T07:48:32;12.60;99.90
4215;DHT22;2121;48.062;7.850;2023-04-24T07:50:58;12.90;99.90
4215;DHT22;2121;48.062;7.850;2023-04-24T07:53:24;12.70;99.90
4215;DHT22;2121;48.062;7.850;2023-04-24T07:55:49;12.30;99.90
4215;DHT22;2121;48.062;7.850;2023-04-24T07:58:15;12.00;99.90
4215;DHT22;2121;48.062;7.850;2023-04-24T08:00:41;11.80;99.90
4215;DHT22;2121;48.062;7.850;2023-04-24T08:03:07;11.80;99.90
4215;DHT22;2121;48.062;7.850;2023-04-24T08:05:32;11.70;99.90
4215;DHT22;2121;48.062;7.850;2023-04-24T08:08:00;11.50;99.90
4215;DHT22;2121;48.062;7.850;2023-04-24T08:10:25;11.40;99.90
4215;DHT22;2121;48.062;7.850;2023-04-24T08:12:51;11.50;99.90
4215;DHT22;2121;48.062;7.850;2023-04-24T08:15:17;11.60;99.90
4215;DHT22;2121;48.062;7.850;2023-04-24T08:17:43;11.50;99.90
4215;DHT22;2121;48.062;7.850;2023-04-24T08:20:10;11.50;99.90
4215;DHT22;2121;48.062;7.850;2023-04-24T08:22:40;11.70;99.90
4215;DHT22;2121;48.062;7.850;2023-04-24T08:25:07;11.80;99.90
4215;DHT22;2121;48.062;7.850;2023-04-24T08:27:33;11.80;99.90
4215;DHT22;2121;48.062;7.850;2023-04-24T08:29:59;11.80;99.90
4215;DHT22;2121;48.062;7.850;2023-04-24T08:32:25;11.70;99.90
4215;DHT22;2121;48.062;7.850;2023-04-24T08:34:55;11.70;99.90
4215;DHT22;2121;48.062;7.850;2023-04-24T08:37:22;11.90;99.90
4215;DHT22;2121;48.062;7.850;2023-04-24T08:39:50;12.00;99.70
4215;DHT22;2121;48.062;7.850;2023-04-24T08:42:17;12.20;98.50
4215;DHT22;2121;48.062;7.850;2023-04-24T08:44:44;12.30;96.90
4215;DHT22;2121;48.062;7.850;2023-04-24T08:47:11;12.40;96.40
4215;DHT22;2121;48.062;7.850;2023-04-24T08:49:38;12.50;96.30
4215;DHT22;2121;48.062;7.850;2023-04-24T08:52:07;12.40;95.40
4215;DHT22;2121;48.062;7.850;2023-04-24T08:54:34;12.50;95.50
4215;DHT22;2121;48.062;7.850;2023-04-24T08:57:02;12.70;95.50
4215;DHT22;2121;48.062;7.850;2023-04-24T08:59:29;12.90;95.80
4215;DHT22;2121;48.062;7.850;2023-04-24T09:01:56;13.10;94.40
4215;DHT22;2121;48.062;7.850;2023-04-24T09:04:24;13.00;93.70
4215;DHT22;2121;48.062;7.850;2023-04-24T09:06:52;12.70;94.10
4215;DHT22;2121;48.062;7.850;2023-04-24T09:09:21;12.50;94.50
4215;DHT22;2121;48.062;7.850;2023-04-24T09:11:49;12.40;94.20
4215;DHT22;2121;48.062;7.850;2023-04-24T09:14:16;12.40;93.80
4215;DHT22;2121;48.062;7.850;2023-04-24T09:16:43;12.30;92.90
4215;DHT22;2121;48.062;7.850;2023-04-24T09:19:09;12.20;93.20
4215;DHT22;2121;48.062;7.850;2023-04-24T09:21:35;12.40;93.40
4215;DHT22;2121;48.062;7.850;2023-04-24T09:24:06;12.50;92.80
4215;DHT22;2121;48.062;7.850;2023-04-24T09:26:36;12.40;92.40
4215;DHT22;2121;48.062;7.850;2023-04-24T09:29:03;12.40;92.50
4215;DHT22;2121;48.062;7.850;2023-04-24T09:31:29;12.90;92.40
4215;DHT22;2121;48.062;7.850;2023-04-24T09:33:57;13.10;92.10
4215;DHT22;2121;48.062;7.850;2023-04-24T09:36:35;12.90;91.70
4215;DHT22;2121;48.062;7.850;2023-04-24T09:39:07;13.10;91.80
4215;DHT22;2121;48.062;7.850;2023-04-24T09:41:47;13.10;90.60
4215;DHT22;2121;48.062;7.850;2023-04-24T09:46:54;13.20;91.00
4215;DHT22;2121;48.062;7.850;2023-04-24T09:49:28;13.40;90.40
4215;DHT22;2121;48.062;7.850;2023-04-24T09:52:10;13.60;90.50
4215;DHT22;2121;48.062;7.850;2023-04-24T09:54:38;14.10;90.60
4215;DHT22;2121;48.062;7.850;2023-04-24T09:57:04;14.60;90.10
4215;DHT22;2121;48.062;7.850;2023-04-24T09:59:31;14.70;86.50
4215;DHT22;2121;48.062;7.850;2023-04-24T10:01:56;13.90;84.70
4215;DHT22;2121;48.062;7.850;2023-04-24T10:04:28;13.60;85.40
4215;DHT22;2121;48.062;7.850;2023-04-24T10:06:56;13.60;85.70
4215;DHT22;2121;48.062;7.850;2023-04-24T10:09:25;13.60;85.70
4215;DHT22;2121;48.062;7.850;2023-04-24T10:11:52;13.80;86.40
4215;DHT22;2121;48.062;7.850;2023-04-24T10:14:21;14.10;85.50
4215;DHT22;2121;48.062;7.850;2023-04-24T10:16:48;14.00;84.10
4215;DHT22;2121;48.062;7.850;2023-04-24T10:19:15;14.30;84.70
4215;DHT22;2121;48.062;7.850;2023-04-24T10:21:44;14.80;86.10
4215;DHT22;2121;48.062;7.850;2023-04-24T10:24:17;15.20;83.70
4215;DHT22;2121;48.062;7.850;2023-04-24T10:26:45;15.50;85.40
4215;DHT22;2121;48.062;7.850;2023-04-24T10:29:18;15.40;82.20
4215;DHT22;2121;48.062;7.850;2023-04-24T10:31:44;15.00;82.60
4215;DHT22;2121;48.062;7.850;2023-04-24T10:34:14;14.60;84.10
4215;DHT22;2121;48.062;7.850;2023-04-24T10:36:45;14.90;84.90
4215;DHT22;2121;48.062;7.850;2023-04-24T10:39:13;14.40;82.70
4215;DHT22;2121;48.062;7.850;2023-04-24T10:41:42;14.10;83.10
4215;DHT22;2121;48.062;7.850;2023-04-24T10:44:12;13.80;83.60
4215;DHT22;2121;48.062;7.850;2023-04-24T10:46:46;13.80;83.90
4215;DHT22;2121;48.062;7.850;2023-04-24T10:49:15;13.90;84.90
4215;DHT22;2121;48.062;7.850;2023-04-24T10:54:26;13.90;84.30
4215;DHT22;2121;48.062;7.850;2023-04-24T10:59:45;13.50;84.40
4215;DHT22;2121;48.062;7.850;2023-04-24T11:02:14;13.50;84.30
4215;DHT22;2121;48.062;7.850;2023-04-24T11:04:44;13.50;84.40
4215;DHT22;2121;48.062;7.850;2023-04-24T11:07:13;13.40;84.30
4215;DHT22;2121;48.062;7.850;2023-04-24T11:09:38;13.50;85.20
4215;DHT22;2121;48.062;7.850;2023-04-24T11:12:09;13.80;85.10
4215;DHT22;2121;48.062;7.850;2023-04-24T11:14:59;13.70;83.20
4215;DHT22;2121;48.062;7.850;2023-04-24T11:17:35;13.70;83.70
4215;DHT22;2121;48.062;7.850;2023-04-24T11:20:10;14.10;84.50
4215;DHT22;2121;48.062;7.850;2023-04-24T11:22:37;14.10;84.20
4215;DHT22;2121;48.062;7.850;2023-04-24T11:25:08;14.30;83.40
4215;DHT22;2121;48.062;7.850;2023-04-24T11:27:40;14.30;82.50
4215;DHT22;2121;48.062;7.850;2023-04-24T11:30:11;14.20;82.90
4215;DHT22;2121;48.062;7.850;2023-04-24T11:32:42;14.00;82.60
4215;DHT22;2121;48.062;7.850;2023-04-24T11:37:43;14.00;83.60
4215;DHT22;2121;48.062;7.850;2023-04-24T11:40:18;14.10;83.80
4215;DHT22;2121;48.062;7.850;2023-04-24T11:42:47;13.80;84.00
4215;DHT22;2121;48.062;7.850;2023-04-24T11:45:23;13.70;86.40
4215;DHT22;2121;48.062;7.850;2023-04-24T11:47:50;13.50;85.40
4215;DHT22;2121;48.062;7.850;2023-04-24T11:50:18;13.40;86.50
4215;DHT22;2121;48.062;7.850;2023-04-24T11:52:48;13.40;87.50
4215;DHT22;2121;48.062;7.850;2023-04-24T11:57:52;13.50;86.80
4215;DHT22;2121;48.062;7.850;2023-04-24T12:00:21;13.50;87.10
4215;DHT22;2121;48.062;7.850;2023-04-24T12:02:49;13.50;85.60
4215;DHT22;2121;48.062;7.850;2023-04-24T12:05:26;13.70;84.60
4215;DHT22;2121;48.062;7.850;2023-04-24T12:07:53;14.00;85.70
4215;DHT22;2121;48.062;7.850;2023-04-24T12:10:23;14.30;85.70
4215;DHT22;2121;48.062;7.850;2023-04-24T12:12:51;14.60;84.50
4215;DHT22;2121;48.062;7.850;2023-04-24T12:15:18;14.40;83.70
4215;DHT22;2121;48.062;7.850;2023-04-24T12:17:45;14.20;85.50
4215;DHT22;2121;48.062;7.850;2023-04-24T12:20:12;13.80;86.30
4215;DHT22;2121;48.062;7.850;2023-04-24T12:25:15;13.10;88.80
4215;DHT22;2121;48.062;7.850;2023-04-24T12:27:43;12.80;89.30
4215;DHT22;2121;48.062;7.850;2023-04-24T12:30:14;13.00;89.80
4215;DHT22;2121;48.062;7.850;2023-04-24T12:32:42;13.10;90.10
4215;DHT22;2121;48.062;7.850;2023-04-24T12:35:09;13.50;90.00
4215;DHT22;2121;48.062;7.850;2023-04-24T12:37:34;13.90;89.20
4215;DHT22;2121;48.062;7.850;2023-04-24T12:40:07;14.20;88.00
4215;DHT22;2121;48.062;7.850;2023-04-24T12:42:36;14.80;88.10
4215;DHT22;2121;48.062;7.850;2023-04-24T12:45:08;15.00;86.40
4215;DHT22;2121;48.062;7.850;2023-04-24T12:47:34;15.00;85.90
4215;DHT22;2121;48.062;7.850;2023-04-24T12:50:01;15.10;86.20
4215;DHT22;2121;48.062;7.850;2023-04-24T12:52:28;15.10;85.70
4215;DHT22;2121;48.062;7.850;2023-04-24T12:54:57;15.10;85.60
4215;DHT22;2121;48.062;7.850;2023-04-24T12:57:25;15.20;85.20
4215;DHT22;2121;48.062;7.850;2023-04-24T12:59:55;15.40;85.70
4215;DHT22;2121;48.062;7.850;2023-04-24T13:02:22;15.30;83.00
4215;DHT22;2121;48.062;7.850;2023-04-24T13:04:49;15.20;83.50
4215;DHT22;2121;48.062;7.850;2023-04-24T13:07:16;15.60;84.30
4215;DHT22;2121;48.062;7.850;2023-04-24T13:09:43;17.50;82.90
4215;DHT22;2121;48.062;7.850;2023-04-24T13:12:10;19.30;80.00
4215;DHT22;2121;48.062;7.850;2023-04-24T13:14:37;18.40;79.40
4215;DHT22;2121;48.062;7.850;2023-04-24T13:17:03;17.60;79.70
4215;DHT22;2121;48.062;7.850;2023-04-24T13:19:36;17.10;78.90
4215;DHT22;2121;48.062;7.850;2023-04-24T13:22:03;17.10;78.10
4215;DHT22;2121;48.062;7.850;2023-04-24T13:24:30;17.00;78.50
4215;DHT22;2121;48.062;7.850;2023-04-24T13:26:56;16.30;78.30
4215;DHT22;2121;48.062;7.850;2023-04-24T13:29:23;15.80;77.90
4215;DHT22;2121;48.062;7.850;2023-04-24T13:31:53;15.20;78.10
4215;DHT22;2121;48.062;7.850;2023-04-24T13:34:24;16.20;78.80
4215;DHT22;2121;48.062;7.850;2023-04-24T13:36:55;19.00;76.20
4215;DHT22;2121;48.062;7.850;2023-04-24T13:39:22;19.70;74.70
4215;DHT22;2121;48.062;7.850;2023-04-24T13:41:48;18.90;74.60
4215;DHT22;2121;48.062;7.850;2023-04-24T13:44:15;19.30;76.70
4215;DHT22;2121;48.062;7.850;2023-04-24T13:46:42;18.90;75.00
4215;DHT22;2121;48.062;7.850;2023-04-24T13:49:11;18.70;74.80
4215;DHT22;2121;48.062;7.850;2023-04-24T13:51:37;17.80;75.30
4215;DHT22;2121;48.062;7.850;2023-04-24T13:54:04;17.30;76.70
4215;DHT22;2121;48.062;7.850;2023-04-24T13:56:29;17.40;77.20
4215;DHT22;2121;48.062;7.850;2023-04-24T13:58:56;16.90;78.50
4215;DHT22;2121;48.062;7.850;2023-04-24T14:01:22;17.10;79.50
4215;DHT22;2121;48.062;7.850;2023-04-24T14:03:54;16.90;79.60
4215;DHT22;2121;48.062;7.850;2023-04-24T14:06:21;16.50;80.60
4215;DHT22;2121;48.062;7.850;2023-04-24T14:08:48;16.80;80.70
4215;DHT22;2121;48.062;7.850;2023-04-24T14:11:15;17.00;80.40
4215;DHT22;2121;48.062;7.850;2023-04-24T14:13:42;17.20;80.00
4215;DHT22;2121;48.062;7.850;2023-04-24T14:16:09;16.90;82.30
4215;DHT22;2121;48.062;7.850;2023-04-24T14:18:35;16.20;82.80
4215;DHT22;2121;48.062;7.850;2023-04-24T14:21:02;15.70;83.10
4215;DHT22;2121;48.062;7.850;2023-04-24T14:23:31;15.40;84.40
4215;DHT22;2121;48.062;7.850;2023-04-24T14:25:57;15.10;85.20
4215;DHT22;2121;48.062;7.850;2023-04-24T14:28:23;15.00;84.90
4215;DHT22;2121;48.062;7.850;2023-04-24T14:30:50;14.70;85.50
4215;DHT22;2121;48.062;7.850;2023-04-24T14:33:16;15.10;85.30
4215;DHT22;2121;48.062;7.850;2023-04-24T14:35:41;15.30;85.90
4215;DHT22;2121;48.062;7.850;2023-04-24T14:38:08;15.70;85.80
4215;DHT22;2121;48.062;7.850;2023-04-24T14:40:34;15.70;86.10
4215;DHT22;2121;48.062;7.850;2023-04-24T14:43:00;17.00;85.80
4215;DHT22;2121;48.062;7.850;2023-04-24T14:45:26;20.30;83.90
4215;DHT22;2121;48.062;7.850;2023-04-24T14:47:53;20.30;79.20
4215;DHT22;2121;48.062;7.850;2023-04-24T14:50:19;18.70;81.20
4215;DHT22;2121;48.062;7.850;2023-04-24T14:52:46;17.20;83.00
4215;DHT22;2121;48.062;7.850;2023-04-24T14:55:12;16.70;85.00
4215;DHT22;2121;48.062;7.850;2023-04-24T14:57:38;16.70;84.70
4215;DHT22;2121;48.062;7.850;2023-04-24T15:00:07;16.20;84.40
4215;DHT22;2121;48.062;7.850;2023-04-24T15:02:35;16.20;85.00
4215;DHT22;2121;48.062;7.850;2023-04-24T15:05:05;16.70;83.70
4215;DHT22;2121;48.062;7.850;2023-04-24T15:07:32;18.10;82.90
4215;DHT22;2121;48.062;7.850;2023-04-24T15:09:58;19.30;81.30
4215;DHT22;2121;48.062;7.850;2023-04-24T15:12:24;19.20;79.10
4215;DHT22;2121;48.062;7.850;2023-04-24T15:14:50;17.80;79.10
4215;DHT22;2121;48.062;7.850;2023-04-24T15:17:15;16.60;79.70
4215;DHT22;2121;48.062;7.850;2023-04-24T15:19:41;16.30;80.80
4215;DHT22;2121;48.062;7.850;2023-04-24T15:22:07;16.10;82.10
4215;DHT22;2121;48.062;7.850;2023-04-24T15:24:33;16.20;81.90
4215;DHT22;2121;48.062;7.850;2023-04-24T15:26:59;16.20;83.40
4215;DHT22;2121;48.062;7.850;2023-04-24T15:29:27;16.00;83.50
4215;DHT22;2121;48.062;7.850;2023-04-24T15:31:53;15.30;84.10
4215;DHT22;2121;48.062;7.850;2023-04-24T15:34:19;15.20;85.90
4215;DHT22;2121;48.062;7.850;2023-04-24T15:36:44;15.20;85.80
4215;DHT22;2121;48.062;7.850;2023-04-24T15:39:10;15.10;85.80
4215;DHT22;2121;48.062;7.850;2023-04-24T15:41:36;14.70;86.70
4215;DHT22;2121;48.062;7.850;2023-04-24T15:44:02;14.70;86.60
4215;DHT22;2121;48.062;7.850;2023-04-24T15:46:28;14.80;87.20
4215;DHT22;2121;48.062;7.850;2023-04-24T15:48:54;14.70;86.60
4215;DHT22;2121;48.062;7.850;2023-04-24T15:51:20;14.70;86.20
4215;DHT22;2121;48.062;7.850;2023-04-24T15:53:45;14.70;87.20
4215;DHT22;2121;48.062;7.850;2023-04-24T15:56:11;14.40;83.90
4215;DHT22;2121;48.062;7.850;2023-04-24T15:58:37;14.20;84.50
4215;DHT22;2121;48.062;7.850;2023-04-24T16:01:03;14.20;85.60
4215;DHT22;2121;48.062;7.850;2023-04-24T16:03:30;14.20;84.70
4215;DHT22;2121;48.062;7.850;2023-04-24T16:05:56;14.10;84.50
4215;DHT22;2121;48.062;7.850;2023-04-24T16:08:22;14.00;84.10
4215;DHT22;2121;48.062;7.850;2023-04-24T16:10:47;13.80;84.40
4215;DHT22;2121;48.062;7.850;2023-04-24T16:13:15;13.60;85.30
4215;DHT22;2121;48.062;7.850;2023-04-24T16:15:43;13.60;85.50